Flight Track Log - Related Links

Times and Time Zones

All times are in EDT time to prevent confusion due to time zone crossing. See the SWA265 flight status page for this flight to view local times or setup timezone preferences in your user account.

Time Position Orientation Groundspeed Altitude Reporting Facility
EDT Latitude Longitude Course Direction KTS MPH feet Rate Location/Type
Wed 03:48:19 PM 39.0639 -76.5539 90° East 208 239 6,700  Level Washington Center
Wed 03:49:19 PM 39.0750 -76.4472 82° East 240 276 10,000 3,450 Climbing Washington Center
Wed 03:50:19 PM 39.1111 -76.3378 67° East 291 335 13,600 3,000 Climbing Washington Center
Wed 03:51:19 PM 39.1078 -76.2122 92° East 317 365 16,000 1,750 Climbing Washington Center
Wed 03:52:00 PM 39.1667 -76.6132 90° East  Level FlightAware
Wed 03:52:19 PM 39.1042 -76.0944 92° East 341 392 17,100  Level Washington Center
Wed 03:53:00 PM 39.1500 -76.4610 90° East  Level FlightAware
Wed 03:53:19 PM 39.1128 -75.9714 85° East 353 406 19,800  Level Washington Center
Wed 03:54:19 PM 39.1922 -75.8836 41° Northeast 326 375 21,800 2,050 Climbing Washington Center
Wed 03:55:19 PM 39.2717 -75.7819 45° Northeast 361 415 23,900 2,200 Climbing Washington Center
Wed 03:56:19 PM 39.3550 -75.6747 45° Northeast 394 453 26,200 2,550 Climbing Washington Center
Wed 03:57:19 PM 39.4531 -75.5969 31° Northeast 406 467 29,000 2,250 Climbing Washington Center
Wed 03:58:19 PM 39.5594 -75.5136 31° Northeast 411 473 30,700 1,250 Climbing Washington Center
Wed 03:59:19 PM 39.6675 -75.4272 32° Northeast 428 493 31,500 1,400 Climbing Washington Center
Wed 04:00:19 PM 39.7758 -75.3322 34° Northeast 447 514 33,500 1,750 Climbing Washington Center
Wed 04:01:19 PM 39.8733 -75.2292 39° Northeast 452 520 35,000 968 Climbing Washington Center
Wed 04:01:52 PM 39.9131 -75.1581 54° Northeast 458 527 35,000  Level New Center
Wed 04:02:53 PM 39.9742 -75.0264 59° Northeast 468 539 35,000  Level New Center
Wed 04:03:53 PM 40.0381 -74.8731 61° Northeast 468 539 35,000 -50 Level New Center
Wed 04:04:53 PM 40.0992 -74.7300 61° Northeast 455 524 34,900 -775 Descending New Center
Wed 04:06:51 PM 40.2439 -74.4500 56° Northeast 467 537 32,700 -1,173 Descending New Center
Wed 04:07:52 PM 40.3408 -74.3464 39° Northeast 459 528 31,400 -1,339 Descending New Center
Wed 04:08:52 PM 40.4236 -74.2197 49° Northeast 459 528 30,000 -1,158 Descending New Center
Wed 04:11:40 PM 40.6636 -73.8656 48° Northeast 467 537 27,000 -750 Descending Boston Center
Wed 04:12:52 PM 40.7508 -73.7358 48° Northeast 462 532 27,000  Level Boston Center
Wed 04:13:52 PM 40.8461 -73.5786 51° Northeast 462 532 27,000  Level Boston Center
Wed 04:14:52 PM 40.9286 -73.4564 48° Northeast 457 526 27,000  Level Boston Center
Wed 04:15:52 PM 41.0192 -73.3342 45° Northeast 457 526 27,000  Level Boston Center
Wed 04:16:52 PM 41.1036 -73.2114 48° Northeast 451 519 27,000  Level Boston Center
Wed 04:17:52 PM 41.1814 -73.0800 52° Northeast 451 519 27,000  Level Boston Center
Wed 04:18:52 PM 41.2489 -72.9369 58° Northeast 451 519 27,000  Level Boston Center
Wed 04:19:52 PM 41.3183 -72.7911 58° Northeast 456 525 27,000  Level Boston Center
Wed 04:20:52 PM 41.3853 -72.6447 59° Northeast 456 525 27,000  Level Boston Center
Wed 04:21:52 PM 41.4522 -72.5011 58° Northeast 456 525 27,000  Level Boston Center
Wed 04:22:52 PM 41.5167 -72.3569 59° Northeast 451 519 27,000  Level Boston Center
Wed 04:23:52 PM 41.5853 -72.2153 57° Northeast 451 519 27,000  Level Boston Center
Wed 04:24:52 PM 41.6517 -72.0678 59° Northeast 451 519 27,000  Level Boston Center
Wed 04:25:52 PM 41.7178 -71.9200 59° Northeast 451 519 27,000  Level Boston Center
Wed 04:26:52 PM 41.7836 -71.7719 59° Northeast 451 519 27,000  Level Boston Center
Wed 04:27:52 PM 41.8472 -71.6264 60° Northeast 456 525 27,000  Level Boston Center
Wed 04:28:52 PM 41.9086 -71.4750 61° Northeast 451 519 27,000  Level Boston Center
Wed 04:29:52 PM 41.9656 -71.3206 64° Northeast 451 519 27,000  Level Boston Center
Wed 04:30:52 PM 42.0561 -71.2069 43° Northeast 440 506 27,000  Level Boston Center
Wed 04:31:52 PM 42.1528 -71.1014 39° Northeast 440 506 27,000  Level Boston Center
Wed 04:32:52 PM 42.2472 -70.9928 40° Northeast 440 506 27,000 -200 Level Boston Center
Wed 04:33:52 PM 42.3378 -70.8897 40° Northeast 440 506 26,600 -1,400 Descending Boston Center
Wed 04:34:52 PM 42.4300 -70.7833 40° Northeast 429 494 24,200 -1,300 Descending Boston Center
Wed 04:35:52 PM 42.5353 -70.7186 24° Northeast 418 481 24,000 -450 Descending Boston Center
Wed 04:36:52 PM 42.6492 -70.6589 21° North 418 481 23,300 -1,550 Descending Boston Center
Wed 04:37:52 PM 42.7503 -70.5967 24° Northeast 411 473 20,900 -2,350 Descending Boston Center
Wed 04:38:52 PM 42.8492 -70.5342 25° Northeast 401 461 18,600 -2,400 Descending Boston Center
Wed 04:39:52 PM 42.9586 -70.4656 25° Northeast 391 450 16,100 -2,300 Descending Boston Center
Wed 04:40:52 PM 43.0408 -70.4089 27° Northeast 381 438 14,000 -2,250 Descending Boston Center
Wed 04:41:52 PM 43.1372 -70.3261 32° Northeast 371 427 11,600 -1,700 Descending Boston Center
Wed 04:42:52 PM 43.2236 -70.2547 31° Northeast 363 418 10,600 -850 Descending Boston Center
Wed 04:43:52 PM 43.3042 -70.2147 20° North 329 379 9,900 -1,100 Descending Boston Center
Wed 04:44:52 PM 43.3825 -70.1775 19° North 297 342 8,400 -1,550 Descending Boston Center
Wed 04:45:52 PM 43.4506 -70.1464 18° North 286 329 6,800 -1,700 Descending Boston Center
Wed 04:46:52 PM 43.5353 -70.1089 18° North 286 329 5,000 -1,500 Descending Boston Center
Wed 04:47:52 PM 43.5997 -70.0978 North 271 312 3,800 -1,100 Descending Boston Center
Wed 04:48:52 PM 43.6511 -70.1617 318° Northwest 232 267 2,800 -850 Descending Boston Center
Wed 04:49:52 PM 43.6625 -70.2186 285° West 192 221 2,100 -1,100 Descending Boston Center
Wed 04:50:52 PM 43.6447 -70.2708 245° Southwest 143 165 600 -950 Descending Boston Center
Wed 04:51:52 PM 43.6417 -70.3228 265° West 143 165 200 5,200 Descending Boston Center
Wed 04:52:52 PM 43.6364 -70.3744 262° West 143 165 11,000 5,400 Climbing Boston Center
Wed 04:53:52 PM 43.6331 -70.4233 265° West 143 165 11,000  Level Boston Center
Wed 04:54:52 PM 43.6278 -70.4753 262° West 143 165 11,000  Level Boston Center
Wed 04:55:52 PM 43.6261 -70.5039 265° West 143 165 11,000  Level Boston Center
Wed 04:57:00 PM 43.6500 -70.5232 90° East  Level FlightAware
Wed 05:04:00 PM 43.6333 -70.3000 101° East  Level FlightAware
Wed 05:05:00 PM 43.6456 -70.3086 101° East  Level Estimated
Wed 05:06:00 PM 43.6456 -70.3086 101° East  Level Estimated

Login

Don't have an account? Register now (free) for customized features, flight alerts, and more!